sensor_id;sensor_type;location;lat;lon;timestamp;P1;durP1;ratioP1;P2;durP2;ratioP2
66957;SDS011;53892;43.258;-2.932;2022-10-17T00:00:19;1.67;;;0.38;;
66957;SDS011;53892;43.258;-2.932;2022-10-17T00:02:45;4.05;;;0.30;;
66957;SDS011;53892;43.258;-2.932;2022-10-17T00:05:11;5.95;;;0.50;;
66957;SDS011;53892;43.258;-2.932;2022-10-17T00:07:37;7.65;;;0.40;;
66957;SDS011;53892;43.258;-2.932;2022-10-17T00:10:04;6.43;;;0.32;;
66957;SDS011;53892;43.258;-2.932;2022-10-17T00:12:30;2.22;;;0.50;;
66957;SDS011;53892;43.258;-2.932;2022-10-17T00:14:56;5.82;;;0.30;;
66957;SDS011;53892;43.258;-2.932;2022-10-17T00:17:22;4.45;;;0.30;;
66957;SDS011;53892;43.258;-2.932;2022-10-17T00:19:49;5.68;;;0.38;;
66957;SDS011;53892;43.258;-2.932;2022-10-17T00:22:15;3.72;;;0.90;;
66957;SDS011;53892;43.258;-2.932;2022-10-17T00:24:41;9.10;;;0.55;;
66957;SDS011;53892;43.258;-2.932;2022-10-17T00:27:07;4.28;;;0.30;;
66957;SDS011;53892;43.258;-2.932;2022-10-17T00:29:33;4.22;;;0.40;;
66957;SDS011;53892;43.258;-2.932;2022-10-17T00:31:59;6.88;;;0.70;;
66957;SDS011;53892;43.258;-2.932;2022-10-17T00:34:27;5.70;;;0.32;;
66957;SDS011;53892;43.258;-2.932;2022-10-17T00:36:53;3.85;;;0.38;;
66957;SDS011;53892;43.258;-2.932;2022-10-17T00:39:19;6.00;;;0.57;;
66957;SDS011;53892;43.258;-2.932;2022-10-17T00:41:45;6.28;;;0.85;;
66957;SDS011;53892;43.258;-2.932;2022-10-17T00:46:57;3.58;;;0.40;;
66957;SDS011;53892;43.258;-2.932;2022-10-17T00:49:24;6.65;;;0.40;;
66957;SDS011;53892;43.258;-2.932;2022-10-17T00:51:52;7.72;;;0.88;;
66957;SDS011;53892;43.258;-2.932;2022-10-17T00:54:20;5.80;;;0.40;;
66957;SDS011;53892;43.258;-2.932;2022-10-17T00:56:47;9.10;;;0.98;;
66957;SDS011;53892;43.258;-2.932;2022-10-17T00:59:14;6.03;;;0.50;;
66957;SDS011;53892;43.258;-2.932;2022-10-17T01:01:40;4.57;;;0.50;;
66957;SDS011;53892;43.258;-2.932;2022-10-17T01:04:07;6.65;;;0.32;;
66957;SDS011;53892;43.258;-2.932;2022-10-17T01:06:34;5.63;;;0.43;;
66957;SDS011;53892;43.258;-2.932;2022-10-17T01:09:00;4.85;;;0.70;;
66957;SDS011;53892;43.258;-2.932;2022-10-17T01:14:10;2.92;;;0.20;;
66957;SDS011;53892;43.258;-2.932;2022-10-17T01:16:41;9.77;;;0.40;;
66957;SDS011;53892;43.258;-2.932;2022-10-17T01:32:03;6.00;;;0.20;;
66957;SDS011;53892;43.258;-2.932;2022-10-17T01:34:32;9.18;;;0.73;;
66957;SDS011;53892;43.258;-2.932;2022-10-17T01:37:07;5.95;;;0.30;;
66957;SDS011;53892;43.258;-2.932;2022-10-17T01:39:40;5.25;;;1.10;;
66957;SDS011;53892;43.258;-2.932;2022-10-17T01:42:16;4.10;;;0.40;;
66957;SDS011;53892;43.258;-2.932;2022-10-17T01:45:05;3.33;;;0.20;;
66957;SDS011;53892;43.258;-2.932;2022-10-17T01:47:34;3.78;;;0.25;;
66957;SDS011;53892;43.258;-2.932;2022-10-17T01:50:02;4.22;;;0.50;;
66957;SDS011;53892;43.258;-2.932;2022-10-17T01:52:32;2.25;;;0.17;;
66957;SDS011;53892;43.258;-2.932;2022-10-17T01:55:05;5.25;;;0.38;;
66957;SDS011;53892;43.258;-2.932;2022-10-17T01:57:34;5.90;;;0.40;;
66957;SDS011;53892;43.258;-2.932;2022-10-17T02:00:02;7.20;;;0.52;;
66957;SDS011;53892;43.258;-2.932;2022-10-17T02:02:29;6.97;;;0.40;;
66957;SDS011;53892;43.258;-2.932;2022-10-17T02:04:55;6.88;;;0.30;;
66957;SDS011;53892;43.258;-2.932;2022-10-17T02:07:22;3.33;;;0.20;;
66957;SDS011;53892;43.258;-2.932;2022-10-17T02:09:48;2.78;;;0.25;;
66957;SDS011;53892;43.258;-2.932;2022-10-17T02:12:34;3.28;;;0.20;;
66957;SDS011;53892;43.258;-2.932;2022-10-17T02:18:15;8.55;;;0.30;;
66957;SDS011;53892;43.258;-2.932;2022-10-17T02:22:51;7.30;;;0.28;;
66957;SDS011;53892;43.258;-2.932;2022-10-17T02:27:58;3.70;;;0.25;;
66957;SDS011;53892;43.258;-2.932;2022-10-17T02:33:11;8.25;;;0.50;;
66957;SDS011;53892;43.258;-2.932;2022-10-17T02:35:42;1.50;;;0.40;;
66957;SDS011;53892;43.258;-2.932;2022-10-17T02:38:10;6.63;;;0.30;;
66957;SDS011;53892;43.258;-2.932;2022-10-17T02:40:37;7.30;;;0.55;;
66957;SDS011;53892;43.258;-2.932;2022-10-17T02:43:04;3.70;;;0.25;;
66957;SDS011;53892;43.258;-2.932;2022-10-17T02:45:30;6.40;;;0.50;;
66957;SDS011;53892;43.258;-2.932;2022-10-17T02:50:41;3.55;;;0.60;;
66957;SDS011;53892;43.258;-2.932;2022-10-17T02:53:10;4.32;;;0.30;;
66957;SDS011;53892;43.258;-2.932;2022-10-17T02:55:39;9.30;;;0.40;;
66957;SDS011;53892;43.258;-2.932;2022-10-17T02:58:06;4.40;;;0.40;;
66957;SDS011;53892;43.258;-2.932;2022-10-17T03:00:35;4.70;;;1.10;;
66957;SDS011;53892;43.258;-2.932;2022-10-17T03:03:08;2.88;;;0.40;;
66957;SDS011;53892;43.258;-2.932;2022-10-17T03:05:43;6.45;;;0.32;;
66957;SDS011;53892;43.258;-2.932;2022-10-17T03:08:09;7.18;;;0.38;;
66957;SDS011;53892;43.258;-2.932;2022-10-17T03:10:35;1.88;;;0.20;;
66957;SDS011;53892;43.258;-2.932;2022-10-17T03:13:01;2.88;;;0.20;;
66957;SDS011;53892;43.258;-2.932;2022-10-17T03:15:28;3.90;;;0.30;;
66957;SDS011;53892;43.258;-2.932;2022-10-17T03:17:54;5.25;;;1.60;;
66957;SDS011;53892;43.258;-2.932;2022-10-17T03:20:20;4.75;;;0.30;;
66957;SDS011;53892;43.258;-2.932;2022-10-17T03:22:46;3.75;;;0.40;;
66957;SDS011;53892;43.258;-2.932;2022-10-17T03:25:12;4.68;;;0.63;;
66957;SDS011;53892;43.258;-2.932;2022-10-17T03:27:38;3.47;;;0.30;;
66957;SDS011;53892;43.258;-2.932;2022-10-17T03:30:04;4.50;;;0.60;;
66957;SDS011;53892;43.258;-2.932;2022-10-17T03:32:34;2.75;;;0.20;;
66957;SDS011;53892;43.258;-2.932;2022-10-17T03:35:00;4.47;;;0.40;;
66957;SDS011;53892;43.258;-2.932;2022-10-17T03:37:26;5.70;;;0.45;;
66957;SDS011;53892;43.258;-2.932;2022-10-17T03:39:52;4.65;;;0.20;;
66957;SDS011;53892;43.258;-2.932;2022-10-17T03:42:18;11.00;;;0.50;;
66957;SDS011;53892;43.258;-2.932;2022-10-17T03:44:44;5.65;;;0.50;;
66957;SDS011;53892;43.258;-2.932;2022-10-17T03:47:10;5.40;;;0.40;;
66957;SDS011;53892;43.258;-2.932;2022-10-17T03:49:36;7.05;;;1.02;;
66957;SDS011;53892;43.258;-2.932;2022-10-17T03:52:02;2.47;;;0.20;;
66957;SDS011;53892;43.258;-2.932;2022-10-17T03:54:28;4.07;;;0.35;;
66957;SDS011;53892;43.258;-2.932;2022-10-17T03:56:55;3.33;;;0.70;;
66957;SDS011;53892;43.258;-2.932;2022-10-17T03:59:21;5.38;;;0.40;;
66957;SDS011;53892;43.258;-2.932;2022-10-17T04:01:47;4.05;;;0.30;;
66957;SDS011;53892;43.258;-2.932;2022-10-17T04:04:13;4.43;;;0.40;;
66957;SDS011;53892;43.258;-2.932;2022-10-17T04:06:39;3.60;;;0.50;;
66957;SDS011;53892;43.258;-2.932;2022-10-17T04:09:06;6.60;;;0.38;;
66957;SDS011;53892;43.258;-2.932;2022-10-17T04:11:32;4.20;;;0.43;;
66957;SDS011;53892;43.258;-2.932;2022-10-17T04:13:58;1.38;;;0.40;;
66957;SDS011;53892;43.258;-2.932;2022-10-17T04:16:25;3.97;;;0.75;;
66957;SDS011;53892;43.258;-2.932;2022-10-17T04:18:52;11.27;;;0.60;;
66957;SDS011;53892;43.258;-2.932;2022-10-17T04:21:19;4.72;;;0.40;;
66957;SDS011;53892;43.258;-2.932;2022-10-17T04:23:45;4.07;;;0.50;;
66957;SDS011;53892;43.258;-2.932;2022-10-17T04:26:11;4.72;;;1.38;;
66957;SDS011;53892;43.258;-2.932;2022-10-17T04:28:37;6.38;;;0.45;;
66957;SDS011;53892;43.258;-2.932;2022-10-17T04:31:08;8.02;;;0.88;;
66957;SDS011;53892;43.258;-2.932;2022-10-17T04:33:35;8.25;;;0.80;;
66957;SDS011;53892;43.258;-2.932;2022-10-17T04:36:03;3.35;;;0.35;;
66957;SDS011;53892;43.258;-2.932;2022-10-17T04:38:29;8.27;;;0.65;;
66957;SDS011;53892;43.258;-2.932;2022-10-17T04:40:56;9.82;;;0.85;;
66957;SDS011;53892;43.258;-2.932;2022-10-17T04:43:22;9.75;;;1.73;;
66957;SDS011;53892;43.258;-2.932;2022-10-17T04:45:48;6.38;;;0.45;;
66957;SDS011;53892;43.258;-2.932;2022-10-17T04:48:14;4.22;;;0.47;;
66957;SDS011;53892;43.258;-2.932;2022-10-17T04:50:40;8.68;;;0.60;;
66957;SDS011;53892;43.258;-2.932;2022-10-17T04:53:06;5.10;;;0.40;;
66957;SDS011;53892;43.258;-2.932;2022-10-17T04:55:35;6.60;;;0.40;;
66957;SDS011;53892;43.258;-2.932;2022-10-17T04:58:02;3.88;;;0.65;;
66957;SDS011;53892;43.258;-2.932;2022-10-17T05:00:28;5.10;;;0.82;;
66957;SDS011;53892;43.258;-2.932;2022-10-17T05:02:54;6.43;;;1.30;;
66957;SDS011;53892;43.258;-2.932;2022-10-17T05:05:20;9.57;;;0.50;;
66957;SDS011;53892;43.258;-2.932;2022-10-17T05:07:47;3.30;;;0.20;;
66957;SDS011;53892;43.258;-2.932;2022-10-17T05:10:13;6.72;;;0.65;;
66957;SDS011;53892;43.258;-2.932;2022-10-17T05:12:39;7.88;;;0.40;;
66957;SDS011;53892;43.258;-2.932;2022-10-17T05:15:05;5.32;;;0.47;;
66957;SDS011;53892;43.258;-2.932;2022-10-17T05:17:32;6.53;;;0.55;;
66957;SDS011;53892;43.258;-2.932;2022-10-17T05:19:58;8.85;;;1.58;;
66957;SDS011;53892;43.258;-2.932;2022-10-17T05:22:24;4.45;;;0.40;;
66957;SDS011;53892;43.258;-2.932;2022-10-17T05:24:50;2.97;;;0.57;;
66957;SDS011;53892;43.258;-2.932;2022-10-17T05:27:16;4.60;;;0.63;;
66957;SDS011;53892;43.258;-2.932;2022-10-17T05:29:42;6.63;;;0.65;;
66957;SDS011;53892;43.258;-2.932;2022-10-17T05:32:09;6.30;;;0.57;;
66957;SDS011;53892;43.258;-2.932;2022-10-17T05:34:35;8.00;;;0.85;;
66957;SDS011;53892;43.258;-2.932;2022-10-17T05:37:01;8.38;;;0.85;;
66957;SDS011;53892;43.258;-2.932;2022-10-17T05:39:27;7.38;;;0.60;;
66957;SDS011;53892;43.258;-2.932;2022-10-17T05:41:54;7.43;;;0.68;;
66957;SDS011;53892;43.258;-2.932;2022-10-17T05:44:20;3.95;;;0.50;;
66957;SDS011;53892;43.258;-2.932;2022-10-17T05:46:49;6.68;;;0.50;;
66957;SDS011;53892;43.258;-2.932;2022-10-17T05:49:15;4.07;;;0.63;;
66957;SDS011;53892;43.258;-2.932;2022-10-17T05:51:42;8.93;;;1.05;;
66957;SDS011;53892;43.258;-2.932;2022-10-17T05:54:08;4.50;;;0.40;;
66957;SDS011;53892;43.258;-2.932;2022-10-17T05:56:34;8.50;;;0.55;;
66957;SDS011;53892;43.258;-2.932;2022-10-17T05:59:00;6.40;;;0.50;;
66957;SDS011;53892;43.258;-2.932;2022-10-17T06:01:27;8.25;;;0.55;;
66957;SDS011;53892;43.258;-2.932;2022-10-17T06:03:53;7.55;;;0.70;;
66957;SDS011;53892;43.258;-2.932;2022-10-17T06:06:19;4.90;;;0.52;;
66957;SDS011;53892;43.258;-2.932;2022-10-17T06:08:45;7.80;;;0.75;;
66957;SDS011;53892;43.258;-2.932;2022-10-17T06:11:11;9.35;;;1.63;;
66957;SDS011;53892;43.258;-2.932;2022-10-17T06:13:38;8.43;;;0.77;;
66957;SDS011;53892;43.258;-2.932;2022-10-17T06:16:05;9.15;;;0.95;;
66957;SDS011;53892;43.258;-2.932;2022-10-17T06:18:31;10.30;;;1.17;;
66957;SDS011;53892;43.258;-2.932;2022-10-17T06:21:01;6.72;;;1.42;;
66957;SDS011;53892;43.258;-2.932;2022-10-17T06:23:28;11.43;;;0.75;;
66957;SDS011;53892;43.258;-2.932;2022-10-17T06:25:56;3.95;;;0.82;;
66957;SDS011;53892;43.258;-2.932;2022-10-17T06:28:29;13.27;;;0.60;;
66957;SDS011;53892;43.258;-2.932;2022-10-17T06:30:58;7.07;;;1.42;;
66957;SDS011;53892;43.258;-2.932;2022-10-17T06:33:24;11.88;;;0.80;;
66957;SDS011;53892;43.258;-2.932;2022-10-17T06:35:51;8.93;;;1.10;;
66957;SDS011;53892;43.258;-2.932;2022-10-17T06:38:17;4.45;;;1.02;;
66957;SDS011;53892;43.258;-2.932;2022-10-17T06:40:43;3.47;;;0.63;;
66957;SDS011;53892;43.258;-2.932;2022-10-17T06:43:09;9.35;;;0.88;;
66957;SDS011;53892;43.258;-2.932;2022-10-17T06:45:37;4.43;;;0.68;;
66957;SDS011;53892;43.258;-2.932;2022-10-17T06:48:04;6.10;;;1.00;;
66957;SDS011;53892;43.258;-2.932;2022-10-17T06:50:30;6.47;;;0.80;;
66957;SDS011;53892;43.258;-2.932;2022-10-17T06:52:56;7.55;;;0.93;;
66957;SDS011;53892;43.258;-2.932;2022-10-17T06:55:22;3.83;;;0.80;;
66957;SDS011;53892;43.258;-2.932;2022-10-17T06:57:48;6.20;;;0.70;;
66957;SDS011;53892;43.258;-2.932;2022-10-17T07:00:16;7.80;;;1.10;;
66957;SDS011;53892;43.258;-2.932;2022-10-17T07:02:42;7.53;;;1.25;;
66957;SDS011;53892;43.258;-2.932;2022-10-17T07:05:09;11.02;;;1.45;;
66957;SDS011;53892;43.258;-2.932;2022-10-17T07:07:35;6.97;;;0.50;;
66957;SDS011;53892;43.258;-2.932;2022-10-17T07:10:02;4.60;;;0.60;;
66957;SDS011;53892;43.258;-2.932;2022-10-17T07:12:32;6.47;;;0.68;;
66957;SDS011;53892;43.258;-2.932;2022-10-17T07:14:59;5.32;;;0.50;;
66957;SDS011;53892;43.258;-2.932;2022-10-17T07:17:25;3.35;;;0.40;;
66957;SDS011;53892;43.258;-2.932;2022-10-17T07:19:51;5.82;;;0.88;;
66957;SDS011;53892;43.258;-2.932;2022-10-17T07:22:17;4.75;;;0.60;;
66957;SDS011;53892;43.258;-2.932;2022-10-17T07:24:43;9.13;;;1.27;;
66957;SDS011;53892;43.258;-2.932;2022-10-17T07:27:09;10.10;;;1.10;;
66957;SDS011;53892;43.258;-2.932;2022-10-17T07:29:35;14.32;;;1.23;;
66957;SDS011;53892;43.258;-2.932;2022-10-17T07:32:02;6.82;;;1.40;;
66957;SDS011;53892;43.258;-2.932;2022-10-17T07:34:30;7.70;;;1.05;;
66957;SDS011;53892;43.258;-2.932;2022-10-17T07:36:56;3.75;;;0.95;;
66957;SDS011;53892;43.258;-2.932;2022-10-17T07:39:34;8.75;;;0.88;;
66957;SDS011;53892;43.258;-2.932;2022-10-17T07:45:04;9.13;;;1.58;;
66957;SDS011;53892;43.258;-2.932;2022-10-17T07:47:30;9.15;;;1.00;;
66957;SDS011;53892;43.258;-2.932;2022-10-17T07:50:17;5.75;;;1.60;;
66957;SDS011;53892;43.258;-2.932;2022-10-17T07:53:01;4.20;;;1.25;;
66957;SDS011;53892;43.258;-2.932;2022-10-17T07:55:37;7.22;;;2.03;;
66957;SDS011;53892;43.258;-2.932;2022-10-17T07:58:03;9.85;;;1.27;;
66957;SDS011;53892;43.258;-2.932;2022-10-17T08:00:30;8.23;;;1.45;;
66957;SDS011;53892;43.258;-2.932;2022-10-17T08:02:56;5.57;;;1.25;;
66957;SDS011;53892;43.258;-2.932;2022-10-17T08:05:23;7.35;;;1.35;;
66957;SDS011;53892;43.258;-2.932;2022-10-17T08:07:53;8.13;;;1.20;;
66957;SDS011;53892;43.258;-2.932;2022-10-17T08:10:19;9.70;;;1.33;;
66957;SDS011;53892;43.258;-2.932;2022-10-17T08:12:56;7.95;;;1.13;;
66957;SDS011;53892;43.258;-2.932;2022-10-17T08:15:25;10.63;;;1.58;;
66957;SDS011;53892;43.258;-2.932;2022-10-17T08:17:53;12.38;;;1.20;;
66957;SDS011;53892;43.258;-2.932;2022-10-17T08:20:20;9.45;;;2.15;;
66957;SDS011;53892;43.258;-2.932;2022-10-17T08:22:55;8.98;;;1.85;;
66957;SDS011;53892;43.258;-2.932;2022-10-17T08:25:21;12.68;;;1.60;;
66957;SDS011;53892;43.258;-2.932;2022-10-17T08:27:48;13.50;;;1.50;;
66957;SDS011;53892;43.258;-2.932;2022-10-17T08:30:14;8.80;;;1.25;;
66957;SDS011;53892;43.258;-2.932;2022-10-17T08:32:40;5.60;;;0.57;;
66957;SDS011;53892;43.258;-2.932;2022-10-17T08:35:09;5.45;;;0.80;;
66957;SDS011;53892;43.258;-2.932;2022-10-17T08:37:35;10.63;;;1.27;;
66957;SDS011;53892;43.258;-2.932;2022-10-17T08:40:02;7.18;;;1.17;;
66957;SDS011;53892;43.258;-2.932;2022-10-17T08:47:35;7.80;;;1.00;;
66957;SDS011;53892;43.258;-2.932;2022-10-17T08:50:03;6.60;;;0.60;;
66957;SDS011;53892;43.258;-2.932;2022-10-17T08:55:00;6.00;;;0.80;;
66957;SDS011;53892;43.258;-2.932;2022-10-17T08:57:26;16.98;;;1.33;;
66957;SDS011;53892;43.258;-2.932;2022-10-17T08:59:52;6.30;;;0.90;;
66957;SDS011;53892;43.258;-2.932;2022-10-17T09:07:20;6.35;;;1.35;;
66957;SDS011;53892;43.258;-2.932;2022-10-17T09:18:10;10.25;;;1.17;;
66957;SDS011;53892;43.258;-2.932;2022-10-17T09:20:46;4.80;;;0.80;;
66957;SDS011;53892;43.258;-2.932;2022-10-17T09:25:47;7.18;;;0.70;;
66957;SDS011;53892;43.258;-2.932;2022-10-17T09:31:00;7.63;;;0.70;;
66957;SDS011;53892;43.258;-2.932;2022-10-17T09:33:39;5.93;;;0.47;;
66957;SDS011;53892;43.258;-2.932;2022-10-17T09:36:10;9.65;;;0.88;;
66957;SDS011;53892;43.258;-2.932;2022-10-17T09:38:39;6.13;;;0.50;;
66957;SDS011;53892;43.258;-2.932;2022-10-17T09:41:10;9.82;;;0.90;;
66957;SDS011;53892;43.258;-2.932;2022-10-17T09:43:44;6.73;;;1.00;;
66957;SDS011;53892;43.258;-2.932;2022-10-17T09:46:33;5.30;;;0.68;;
66957;SDS011;53892;43.258;-2.932;2022-10-17T09:49:02;4.55;;;0.70;;
66957;SDS011;53892;43.258;-2.932;2022-10-17T09:51:30;3.80;;;0.68;;
66957;SDS011;53892;43.258;-2.932;2022-10-17T09:53:59;8.07;;;0.47;;
66957;SDS011;53892;43.258;-2.932;2022-10-17T09:56:26;6.53;;;0.65;;
66957;SDS011;53892;43.258;-2.932;2022-10-17T09:58:55;7.07;;;1.10;;
66957;SDS011;53892;43.258;-2.932;2022-10-17T10:01:28;13.45;;;1.13;;
66957;SDS011;53892;43.258;-2.932;2022-10-17T10:06:37;17.83;;;1.80;;
66957;SDS011;53892;43.258;-2.932;2022-10-17T10:09:03;6.03;;;0.63;;
66957;SDS011;53892;43.258;-2.932;2022-10-17T10:11:48;3.42;;;0.55;;
66957;SDS011;53892;43.258;-2.932;2022-10-17T10:14:22;6.80;;;0.93;;
66957;SDS011;53892;43.258;-2.932;2022-10-17T10:16:49;4.35;;;1.02;;
66957;SDS011;53892;43.258;-2.932;2022-10-17T10:19:28;12.88;;;1.00;;
66957;SDS011;53892;43.258;-2.932;2022-10-17T10:24:24;11.52;;;0.60;;
66957;SDS011;53892;43.258;-2.932;2022-10-17T10:26:51;3.03;;;0.40;;
66957;SDS011;53892;43.258;-2.932;2022-10-17T10:32:22;8.35;;;0.57;;
66957;SDS011;53892;43.258;-2.932;2022-10-17T10:37:23;6.00;;;0.30;;
66957;SDS011;53892;43.258;-2.932;2022-10-17T10:40:25;4.00;;;0.25;;
66957;SDS011;53892;43.258;-2.932;2022-10-17T10:42:45;3.70;;;0.40;;
66957;SDS011;53892;43.258;-2.932;2022-10-17T10:47:49;7.73;;;0.40;;
66957;SDS011;53892;43.258;-2.932;2022-10-17T10:55:49;4.10;;;0.20;;
66957;SDS011;53892;43.258;-2.932;2022-10-17T11:00:45;7.30;;;0.20;;
66957;SDS011;53892;43.258;-2.932;2022-10-17T11:03:16;4.75;;;0.45;;
66957;SDS011;53892;43.258;-2.932;2022-10-17T11:05:51;2.67;;;0.30;;
66957;SDS011;53892;43.258;-2.932;2022-10-17T11:08:25;4.53;;;0.30;;
66957;SDS011;53892;43.258;-2.932;2022-10-17T11:14:17;6.35;;;0.68;;
66957;SDS011;53892;43.258;-2.932;2022-10-17T11:21:48;6.75;;;0.90;;
66957;SDS011;53892;43.258;-2.932;2022-10-17T11:27:09;5.22;;;0.20;;
66957;SDS011;53892;43.258;-2.932;2022-10-17T11:29:37;3.22;;;0.30;;
66957;SDS011;53892;43.258;-2.932;2022-10-17T11:32:14;5.13;;;0.47;;
66957;SDS011;53892;43.258;-2.932;2022-10-17T11:34:51;3.95;;;0.20;;
66957;SDS011;53892;43.258;-2.932;2022-10-17T11:37:37;2.65;;;0.30;;
66957;SDS011;53892;43.258;-2.932;2022-10-17T11:40:14;3.22;;;0.30;;
66957;SDS011;53892;43.258;-2.932;2022-10-17T11:42:50;7.45;;;0.50;;
66957;SDS011;53892;43.258;-2.932;2022-10-17T11:45:21;9.13;;;0.50;;
66957;SDS011;53892;43.258;-2.932;2022-10-17T11:47:49;4.75;;;0.28;;
66957;SDS011;53892;43.258;-2.932;2022-10-17T11:52:45;6.32;;;0.20;;
66957;SDS011;53892;43.258;-2.932;2022-10-17T11:55:18;10.30;;;0.50;;
66957;SDS011;53892;43.258;-2.932;2022-10-17T12:07:51;1.80;;;0.25;;
66957;SDS011;53892;43.258;-2.932;2022-10-17T12:10:42;3.78;;;0.30;;
66957;SDS011;53892;43.258;-2.932;2022-10-17T12:13:55;4.40;;;0.30;;
66957;SDS011;53892;43.258;-2.932;2022-10-17T12:15:57;3.67;;;0.93;;
66957;SDS011;53892;43.258;-2.932;2022-10-17T12:18:24;5.68;;;0.28;;
66957;SDS011;53892;43.258;-2.932;2022-10-17T12:20:56;7.88;;;0.85;;
66957;SDS011;53892;43.258;-2.932;2022-10-17T12:23:28;4.78;;;0.70;;
66957;SDS011;53892;43.258;-2.932;2022-10-17T12:25:55;3.60;;;0.20;;
66957;SDS011;53892;43.258;-2.932;2022-10-17T12:33:21;2.78;;;0.28;;
66957;SDS011;53892;43.258;-2.932;2022-10-17T12:35:51;6.80;;;0.32;;
66957;SDS011;53892;43.258;-2.932;2022-10-17T12:38:37;3.35;;;0.40;;
66957;SDS011;53892;43.258;-2.932;2022-10-17T12:41:03;4.03;;;0.35;;
66957;SDS011;53892;43.258;-2.932;2022-10-17T12:45:57;10.13;;;0.47;;
66957;SDS011;53892;43.258;-2.932;2022-10-17T12:53:25;2.70;;;0.80;;
66957;SDS011;53892;43.258;-2.932;2022-10-17T12:55:59;2.10;;;0.32;;
66957;SDS011;53892;43.258;-2.932;2022-10-17T12:58:26;5.50;;;0.32;;
66957;SDS011;53892;43.258;-2.932;2022-10-17T13:00:56;4.22;;;0.38;;
66957;SDS011;53892;43.258;-2.932;2022-10-17T13:03:33;4.15;;;0.45;;
66957;SDS011;53892;43.258;-2.932;2022-10-17T13:06:05;5.88;;;0.68;;
66957;SDS011;53892;43.258;-2.932;2022-10-17T13:10:58;4.75;;;0.85;;
66957;SDS011;53892;43.258;-2.932;2022-10-17T13:16:00;7.78;;;0.45;;
66957;SDS011;53892;43.258;-2.932;2022-10-17T13:18:27;6.75;;;0.52;;
66957;SDS011;53892;43.258;-2.932;2022-10-17T13:21:04;2.40;;;0.60;;
66957;SDS011;53892;43.258;-2.932;2022-10-17T13:23:32;4.93;;;0.20;;
66957;SDS011;53892;43.258;-2.932;2022-10-17T13:26:22;8.82;;;0.30;;
66957;SDS011;53892;43.258;-2.932;2022-10-17T13:28:48;5.85;;;0.88;;
66957;SDS011;53892;43.258;-2.932;2022-10-17T13:31:34;3.00;;;0.20;;
66957;SDS011;53892;43.258;-2.932;2022-10-17T13:34:02;5.53;;;0.30;;
66957;SDS011;53892;43.258;-2.932;2022-10-17T13:36:32;6.78;;;0.65;;
66957;SDS011;53892;43.258;-2.932;2022-10-17T13:38:59;6.65;;;0.77;;
66957;SDS011;53892;43.258;-2.932;2022-10-17T13:41:29;3.88;;;0.28;;
66957;SDS011;53892;43.258;-2.932;2022-10-17T13:43:59;4.78;;;0.65;;
66957;SDS011;53892;43.258;-2.932;2022-10-17T13:46:29;4.32;;;0.20;;
66957;SDS011;53892;43.258;-2.932;2022-10-17T13:48:56;19.27;;;0.98;;
66957;SDS011;53892;43.258;-2.932;2022-10-17T13:51:25;14.80;;;1.67;;
66957;SDS011;53892;43.258;-2.932;2022-10-17T13:53:53;5.20;;;0.40;;
66957;SDS011;53892;43.258;-2.932;2022-10-17T13:56:26;8.05;;;0.75;;
66957;SDS011;53892;43.258;-2.932;2022-10-17T14:01:43;6.97;;;0.73;;
66957;SDS011;53892;43.258;-2.932;2022-10-17T14:04:09;6.85;;;0.50;;
66957;SDS011;53892;43.258;-2.932;2022-10-17T14:06:40;3.83;;;0.47;;
66957;SDS011;53892;43.258;-2.932;2022-10-17T14:09:15;2.95;;;0.60;;
66957;SDS011;53892;43.258;-2.932;2022-10-17T14:11:42;9.07;;;0.52;;
66957;SDS011;53892;43.258;-2.932;2022-10-17T14:14:22;14.95;;;0.50;;
66957;SDS011;53892;43.258;-2.932;2022-10-17T14:16:49;13.48;;;1.05;;
66957;SDS011;53892;43.258;-2.932;2022-10-17T14:21:48;6.07;;;0.60;;
66957;SDS011;53892;43.258;-2.932;2022-10-17T14:24:25;6.47;;;0.50;;
66957;SDS011;53892;43.258;-2.932;2022-10-17T14:33:11;10.00;;;0.70;;
66957;SDS011;53892;43.258;-2.932;2022-10-17T14:35:54;8.52;;;0.50;;
66957;SDS011;53892;43.258;-2.932;2022-10-17T14:38:23;11.02;;;1.45;;
66957;SDS011;53892;43.258;-2.932;2022-10-17T14:41:00;8.80;;;0.40;;
66957;SDS011;53892;43.258;-2.932;2022-10-17T14:43:28;12.20;;;0.68;;
66957;SDS011;53892;43.258;-2.932;2022-10-17T14:45:59;11.52;;;0.80;;
66957;SDS011;53892;43.258;-2.932;2022-10-17T14:48:29;12.45;;;1.13;;
66957;SDS011;53892;43.258;-2.932;2022-10-17T14:51:06;7.82;;;1.15;;
66957;SDS011;53892;43.258;-2.932;2022-10-17T14:53:32;11.80;;;0.90;;
66957;SDS011;53892;43.258;-2.932;2022-10-17T14:56:21;13.13;;;0.70;;
66957;SDS011;53892;43.258;-2.932;2022-10-17T14:58:55;9.13;;;0.85;;
66957;SDS011;53892;43.258;-2.932;2022-10-17T15:04:28;6.70;;;0.32;;
66957;SDS011;53892;43.258;-2.932;2022-10-17T15:07:04;6.53;;;1.23;;
66957;SDS011;53892;43.258;-2.932;2022-10-17T15:09:50;10.07;;;1.30;;
66957;SDS011;53892;43.258;-2.932;2022-10-17T15:12:25;15.20;;;0.60;;
66957;SDS011;53892;43.258;-2.932;2022-10-17T15:14:52;6.43;;;0.52;;
66957;SDS011;53892;43.258;-2.932;2022-10-17T15:17:21;9.40;;;1.13;;
66957;SDS011;53892;43.258;-2.932;2022-10-17T15:19:48;6.45;;;0.93;;
66957;SDS011;53892;43.258;-2.932;2022-10-17T15:22:17;13.60;;;0.52;;
66957;SDS011;53892;43.258;-2.932;2022-10-17T15:24:43;14.68;;;0.55;;
66957;SDS011;53892;43.258;-2.932;2022-10-17T15:27:16;11.88;;;0.85;;
66957;SDS011;53892;43.258;-2.932;2022-10-17T15:29:43;4.88;;;0.60;;
66957;SDS011;53892;43.258;-2.932;2022-10-17T15:32:09;8.30;;;1.17;;
66957;SDS011;53892;43.258;-2.932;2022-10-17T15:34:35;5.90;;;0.90;;
66957;SDS011;53892;43.258;-2.932;2022-10-17T15:37:01;11.23;;;0.70;;
66957;SDS011;53892;43.258;-2.932;2022-10-17T15:39:28;4.88;;;0.80;;
66957;SDS011;53892;43.258;-2.932;2022-10-17T15:41:54;8.40;;;1.10;;
66957;SDS011;53892;43.258;-2.932;2022-10-17T15:44:21;6.40;;;0.60;;
66957;SDS011;53892;43.258;-2.932;2022-10-17T15:46:47;8.27;;;0.60;;
66957;SDS011;53892;43.258;-2.932;2022-10-17T15:49:13;11.85;;;0.80;;
66957;SDS011;53892;43.258;-2.932;2022-10-17T15:51:41;4.88;;;0.98;;
66957;SDS011;53892;43.258;-2.932;2022-10-17T15:54:07;9.63;;;0.75;;
66957;SDS011;53892;43.258;-2.932;2022-10-17T15:56:35;8.18;;;0.68;;
66957;SDS011;53892;43.258;-2.932;2022-10-17T15:59:06;10.68;;;1.42;;
66957;SDS011;53892;43.258;-2.932;2022-10-17T16:01:33;8.23;;;0.80;;
66957;SDS011;53892;43.258;-2.932;2022-10-17T16:03:59;5.00;;;0.55;;
66957;SDS011;53892;43.258;-2.932;2022-10-17T16:06:26;15.88;;;1.58;;
66957;SDS011;53892;43.258;-2.932;2022-10-17T16:08:53;10.10;;;0.60;;
66957;SDS011;53892;43.258;-2.932;2022-10-17T16:13:52;12.27;;;1.50;;
66957;SDS011;53892;43.258;-2.932;2022-10-17T16:16:18;15.40;;;1.08;;
66957;SDS011;53892;43.258;-2.932;2022-10-17T16:18:46;11.23;;;0.85;;
66957;SDS011;53892;43.258;-2.932;2022-10-17T16:21:13;11.25;;;1.05;;
66957;SDS011;53892;43.258;-2.932;2022-10-17T16:23:39;12.13;;;1.15;;
66957;SDS011;53892;43.258;-2.932;2022-10-17T16:26:06;14.73;;;1.02;;
66957;SDS011;53892;43.258;-2.932;2022-10-17T16:28:32;8.48;;;0.90;;
66957;SDS011;53892;43.258;-2.932;2022-10-17T16:30:59;17.65;;;1.92;;
66957;SDS011;53892;43.258;-2.932;2022-10-17T16:33:25;12.23;;;1.10;;
66957;SDS011;53892;43.258;-2.932;2022-10-17T16:35:51;7.07;;;1.60;;
66957;SDS011;53892;43.258;-2.932;2022-10-17T16:38:17;16.30;;;1.73;;
66957;SDS011;53892;43.258;-2.932;2022-10-17T16:40:43;23.13;;;2.50;;
66957;SDS011;53892;43.258;-2.932;2022-10-17T16:43:11;17.10;;;2.50;;
66957;SDS011;53892;43.258;-2.932;2022-10-17T16:45:37;31.30;;;3.30;;
66957;SDS011;53892;43.258;-2.932;2022-10-17T16:48:03;23.45;;;2.10;;
66957;SDS011;53892;43.258;-2.932;2022-10-17T16:50:30;23.20;;;2.55;;
66957;SDS011;53892;43.258;-2.932;2022-10-17T16:52:59;23.30;;;2.42;;
66957;SDS011;53892;43.258;-2.932;2022-10-17T16:55:25;15.43;;;2.00;;
66957;SDS011;53892;43.258;-2.932;2022-10-17T16:57:52;14.30;;;2.72;;
66957;SDS011;53892;43.258;-2.932;2022-10-17T17:00:18;21.23;;;2.13;;
66957;SDS011;53892;43.258;-2.932;2022-10-17T17:02:46;16.73;;;3.28;;